createdAt,value
2023-05-02T00:01:15.248Z,85.59
2023-05-02T00:03:45.358Z,85.86
2023-05-02T00:06:15.509Z,85.79
2023-05-02T00:08:45.497Z,86.30
2023-05-02T00:11:14.492Z,86.56
2023-05-02T00:13:44.101Z,86.45
2023-05-02T00:16:13.996Z,86.60
2023-05-02T00:18:42.301Z,87.10
2023-05-02T00:21:11.375Z,87.26
2023-05-02T00:23:39.482Z,87.37
2023-05-02T00:26:11.219Z,86.67
2023-05-02T00:28:40.311Z,86.34
2023-05-02T00:31:08.056Z,86.14
2023-05-02T00:33:36.385Z,86.59
2023-05-02T00:36:05.053Z,86.98
2023-05-02T00:38:33.354Z,86.59
2023-05-02T00:41:01.645Z,86.87
2023-05-02T00:43:31.523Z,87.14
2023-05-02T00:46:00.622Z,87.43
2023-05-02T00:48:30.610Z,87.85
2023-05-02T00:51:05.416Z,88.00
2023-05-02T00:53:35.483Z,88.70
2023-05-02T00:56:06.116Z,88.93
2023-05-02T00:58:38.187Z,89.22
2023-05-02T01:01:19.340Z,89.70
2023-05-02T01:04:00.099Z,89.80
2023-05-02T01:06:41.941Z,89.61
2023-05-02T01:09:48.373Z,89.52
2023-05-02T01:12:33.081Z,89.17
2023-05-02T01:15:08.108Z,89.07
2023-05-02T01:17:40.296Z,89.44
2023-05-02T01:20:20.544Z,89.60
2023-05-02T01:22:52.418Z,89.47
2023-05-02T01:26:13.523Z,89.28
2023-05-02T01:29:02.913Z,87.57
2023-05-02T01:31:41.812Z,86.41
2023-05-02T01:34:12.357Z,85.63
2023-05-02T01:36:46.531Z,83.81
2023-05-02T01:39:22.764Z,82.40
2023-05-02T01:41:57.539Z,81.24
2023-05-02T01:44:30.331Z,79.59
2023-05-02T01:47:02.443Z,79.46
2023-05-02T01:49:35.214Z,78.19
2023-05-02T01:52:12.509Z,77.31
2023-05-02T01:54:44.034Z,77.12
2023-05-02T01:57:18.382Z,76.11
2023-05-02T01:59:50.703Z,74.63
2023-05-02T02:02:24.460Z,74.20
2023-05-02T02:04:59.100Z,74.06
2023-05-02T02:07:28.970Z,74.87
2023-05-02T02:09:57.778Z,73.58
2023-05-02T02:12:41.607Z,73.58
2023-05-02T02:15:26.932Z,73.83
2023-05-02T02:18:13.770Z,73.25
2023-05-02T02:20:46.807Z,73.05
2023-05-02T02:23:21.014Z,73.25
2023-05-02T02:25:53.603Z,73.69
2023-05-02T02:28:23.968Z,74.30
2023-05-02T02:30:54.007Z,73.68
2023-05-02T02:33:30.694Z,74.04
2023-05-02T02:36:23.660Z,74.38
2023-05-02T02:39:25.762Z,75.24
2023-05-02T02:42:45.732Z,75.30
2023-05-02T02:45:35.249Z,75.51
2023-05-02T02:48:19.865Z,75.33
2023-05-02T02:51:50.864Z,74.89
2023-05-02T02:54:27.706Z,75.97
2023-05-02T02:57:27.699Z,76.16
2023-05-02T03:00:09.225Z,76.60
2023-05-02T03:02:43.066Z,77.29
2023-05-02T03:05:14.085Z,78.31
2023-05-02T03:07:44.187Z,78.95
2023-05-02T03:10:14.027Z,80.13
2023-05-02T03:12:43.787Z,80.29
2023-05-02T03:15:54.158Z,79.76
2023-05-02T03:18:23.718Z,79.50
2023-05-02T03:20:52.169Z,80.19
2023-05-02T03:23:20.478Z,80.75
2023-05-02T03:25:48.972Z,80.36
2023-05-02T03:28:17.633Z,80.56
2023-05-02T03:30:45.751Z,80.42
2023-05-02T03:33:14.353Z,80.86
2023-05-02T03:35:42.689Z,81.27
2023-05-02T03:38:11.185Z,81.72
2023-05-02T03:40:39.453Z,82.03
2023-05-02T03:43:07.966Z,82.37
2023-05-02T03:45:36.345Z,82.57
2023-05-02T03:48:04.787Z,82.83
2023-05-02T03:50:33.224Z,82.85
2023-05-02T03:53:01.836Z,82.50
2023-05-02T03:55:29.938Z,82.46
2023-05-02T03:57:58.387Z,82.74
2023-05-02T04:00:26.961Z,83.00
2023-05-02T04:02:55.408Z,83.34
2023-05-02T04:05:23.880Z,82.89
2023-05-02T04:07:52.163Z,83.01
2023-05-02T04:10:20.608Z,83.15
2023-05-02T04:12:49.209Z,83.46
2023-05-02T04:15:17.586Z,83.58
2023-05-02T04:17:46.850Z,83.69
2023-05-02T04:20:14.986Z,83.57
2023-05-02T04:22:42.673Z,83.29
2023-05-02T04:25:11.041Z,83.14
2023-05-02T04:27:39.521Z,83.04
2023-05-02T04:30:10.409Z,83.12
2023-05-02T04:32:40.288Z,82.98
2023-05-02T04:35:10.778Z,83.06
2023-05-02T04:37:40.013Z,83.02
2023-05-02T04:40:11.420Z,82.56
2023-05-02T04:42:40.435Z,82.10
2023-05-02T04:45:10.324Z,81.69
2023-05-02T04:47:40.187Z,80.94
2023-05-02T04:50:10.536Z,81.05
2023-05-02T04:52:40.361Z,80.35
2023-05-02T04:55:10.174Z,80.28
2023-05-02T04:57:40.141Z,79.99
2023-05-02T05:00:11.231Z,80.09
2023-05-02T05:02:40.736Z,80.08
2023-05-02T05:05:10.744Z,79.71
2023-05-02T05:07:40.975Z,79.56
2023-05-02T05:10:11.513Z,79.06
2023-05-02T05:12:41.163Z,78.79
2023-05-02T05:15:11.677Z,77.69
2023-05-02T05:17:42.130Z,76.66
2023-05-02T05:20:11.870Z,76.77
2023-05-02T05:22:42.454Z,76.82
2023-05-02T05:25:12.593Z,76.32
2023-05-02T05:27:40.873Z,76.20
2023-05-02T05:30:09.982Z,76.07
2023-05-02T05:32:37.917Z,75.67
2023-05-02T05:35:06.921Z,75.58
2023-05-02T05:37:36.908Z,75.10
2023-05-02T05:40:08.748Z,75.22
2023-05-02T05:42:37.529Z,75.04
2023-05-02T05:45:09.061Z,75.33
2023-05-02T05:47:38.168Z,75.58
2023-05-02T05:50:08.873Z,75.75
2023-05-02T05:52:38.602Z,76.04
2023-05-02T05:55:09.274Z,75.89
2023-05-02T05:57:39.132Z,75.95
2023-05-02T06:00:10.704Z,75.97
2023-05-02T06:02:40.275Z,75.65
2023-05-02T06:05:10.329Z,75.89
2023-05-02T06:07:40.448Z,75.46
2023-05-02T06:10:10.965Z,75.29
2023-05-02T06:12:40.137Z,74.65
2023-05-02T06:15:10.466Z,72.94
2023-05-02T06:17:40.155Z,72.71
2023-05-02T06:20:10.347Z,72.26
2023-05-02T06:22:40.148Z,72.64
2023-05-02T06:25:10.393Z,70.82
2023-05-02T06:27:37.944Z,69.41
2023-05-02T06:30:07.299Z,70.41
2023-05-02T06:32:34.817Z,70.98
2023-05-02T06:35:05.335Z,71.79
2023-05-02T06:37:35.647Z,71.46
2023-05-02T06:40:05.935Z,71.74
2023-05-02T06:42:35.776Z,71.07
2023-05-02T06:45:06.385Z,70.61
2023-05-02T06:47:36.073Z,71.44
2023-05-02T06:50:07.025Z,70.76
2023-05-02T06:52:35.914Z,71.12
2023-05-02T06:55:06.736Z,69.42
2023-05-02T06:57:36.145Z,69.07
2023-05-02T07:00:07.050Z,68.78
2023-05-02T07:02:36.310Z,69.36
2023-05-02T07:05:06.877Z,69.16
2023-05-02T07:07:36.293Z,71.11
2023-05-02T07:10:07.062Z,71.57
2023-05-02T07:12:36.647Z,71.51
2023-05-02T07:15:07.536Z,72.17
2023-05-02T07:17:36.855Z,74.22
2023-05-02T07:20:08.364Z,74.91
2023-05-02T07:22:37.274Z,74.74
2023-05-02T07:25:07.276Z,75.50
2023-05-02T07:27:37.179Z,76.36
2023-05-02T07:30:08.321Z,76.47
2023-05-02T07:32:35.194Z,76.29
2023-05-02T07:35:05.633Z,77.25
2023-05-02T07:37:36.336Z,76.67
2023-05-02T07:40:07.924Z,75.31
2023-05-02T07:42:37.069Z,74.01
2023-05-02T07:45:08.543Z,73.86
2023-05-02T07:47:37.555Z,73.39
2023-05-02T07:50:09.020Z,74.33
2023-05-02T07:52:38.192Z,73.69
2023-05-02T07:55:08.775Z,73.90
2023-05-02T07:57:38.389Z,73.96
2023-05-02T08:00:10.247Z,74.99
2023-05-02T08:02:39.176Z,75.08
2023-05-02T08:05:09.472Z,75.20
2023-05-02T08:07:37.600Z,75.65
2023-05-02T08:10:07.707Z,76.52
2023-05-02T08:12:43.523Z,76.68
2023-05-02T08:15:15.717Z,75.93
2023-05-02T08:17:44.637Z,76.30
2023-05-02T08:20:12.151Z,77.75
2023-05-02T08:22:41.938Z,77.39
2023-05-02T08:25:11.656Z,77.45
2023-05-02T08:27:41.420Z,76.58
2023-05-02T08:30:12.177Z,77.38
2023-05-02T08:32:42.034Z,75.64
2023-05-02T08:35:12.027Z,74.78
2023-05-02T08:37:42.201Z,72.54
2023-05-02T08:40:14.241Z,72.81
2023-05-02T08:42:44.905Z,72.62
2023-05-02T08:45:16.654Z,71.90
2023-05-02T08:47:47.100Z,71.03
2023-05-02T08:50:18.889Z,70.25
2023-05-02T08:52:51.979Z,70.66
2023-05-02T08:55:27.552Z,71.06
2023-05-02T08:57:58.745Z,71.16
2023-05-02T09:00:28.263Z,70.02
2023-05-02T09:03:05.229Z,70.96
2023-05-02T09:05:42.096Z,71.20
2023-05-02T09:08:09.602Z,72.07
2023-05-02T09:10:42.292Z,71.54
2023-05-02T09:13:30.668Z,73.32
2023-05-02T09:16:08.661Z,74.03
2023-05-02T09:18:48.737Z,74.29
2023-05-02T09:21:25.282Z,73.65
2023-05-02T09:24:00.404Z,72.59
2023-05-02T09:26:34.316Z,70.36
2023-05-02T09:29:05.406Z,70.09
2023-05-02T09:34:14.633Z,70.93
2023-05-02T09:36:54.652Z,69.68
2023-05-02T09:39:29.636Z,70.50
2023-05-02T09:41:59.993Z,70.98
2023-05-02T09:44:38.462Z,72.00
2023-05-02T09:47:08.911Z,72.45
2023-05-02T09:49:44.718Z,72.42
2023-05-02T09:52:22.361Z,71.71
2023-05-02T09:54:53.302Z,72.63
2023-05-02T09:57:41.495Z,73.00
2023-05-02T10:00:13.293Z,73.00
2023-05-02T10:02:43.425Z,74.08
2023-05-02T10:05:13.932Z,75.20
2023-05-02T10:07:46.304Z,76.55
2023-05-02T10:10:18.755Z,77.28
2023-05-02T10:12:52.931Z,77.51
2023-05-02T10:15:26.928Z,76.81
2023-05-02T10:18:02.762Z,77.30
2023-05-02T10:20:43.554Z,77.69
2023-05-02T10:23:17.077Z,77.28
2023-05-02T10:25:47.075Z,75.21
2023-05-02T10:28:17.257Z,73.61
2023-05-02T10:30:49.743Z,73.81
2023-05-02T10:33:22.510Z,74.28
2023-05-02T10:35:52.914Z,74.37
2023-05-02T10:38:24.936Z,73.96
2023-05-02T10:41:13.715Z,74.72
2023-05-02T10:43:49.163Z,77.28
2023-05-02T10:46:33.456Z,79.36
2023-05-02T10:49:11.935Z,80.07
2023-05-02T10:51:43.525Z,80.24
2023-05-02T10:54:16.359Z,80.76
2023-05-02T10:57:05.869Z,81.31
2023-05-02T10:59:41.372Z,82.88
2023-05-02T11:02:28.085Z,83.13
2023-05-02T11:05:08.288Z,80.97
2023-05-02T11:07:38.091Z,82.07
2023-05-02T11:10:16.879Z,82.01
2023-05-02T11:12:55.427Z,84.52
2023-05-02T11:15:28.119Z,85.15
2023-05-02T11:18:12.980Z,86.41
2023-05-02T11:20:45.961Z,88.56
2023-05-02T11:23:15.788Z,88.09
2023-05-02T11:25:49.566Z,89.36
2023-05-02T11:28:37.865Z,87.82
2023-05-02T11:31:31.284Z,89.73
2023-05-02T11:34:04.495Z,89.78
2023-05-02T11:36:36.947Z,89.37
2023-05-02T11:39:21.622Z,87.00
2023-05-02T11:41:51.872Z,87.11
2023-05-02T11:44:21.864Z,85.89
2023-05-02T11:46:51.666Z,84.84
2023-05-02T11:49:21.767Z,84.64
2023-05-02T11:51:51.998Z,81.87
2023-05-02T11:54:22.934Z,80.62
2023-05-02T11:56:52.787Z,78.67
2023-05-02T11:59:22.731Z,78.58
2023-05-02T12:01:53.770Z,77.42
2023-05-02T12:04:25.882Z,75.81
2023-05-02T12:06:57.707Z,73.91
2023-05-02T12:09:27.569Z,73.71
2023-05-02T12:11:58.483Z,73.54
2023-05-02T12:14:36.262Z,74.75
2023-05-02T12:17:06.761Z,73.94
2023-05-02T12:19:37.968Z,74.74
2023-05-02T12:22:09.095Z,73.83
2023-05-02T12:24:39.448Z,73.41
2023-05-02T12:27:14.739Z,71.96
2023-05-02T12:29:47.070Z,70.41
2023-05-02T12:32:32.707Z,70.39
2023-05-02T12:35:04.346Z,69.84
2023-05-02T12:37:34.136Z,68.09
2023-05-02T12:40:16.996Z,69.19
2023-05-02T12:43:06.594Z,67.87
2023-05-02T12:45:37.636Z,68.01
2023-05-02T12:48:28.228Z,66.92
2023-05-02T12:50:58.186Z,66.77
2023-05-02T12:53:54.466Z,66.04
2023-05-02T12:56:24.648Z,64.78
2023-05-02T12:58:54.389Z,65.76
2023-05-02T13:01:24.142Z,66.93
2023-05-02T13:03:54.109Z,66.32
2023-05-02T13:06:24.033Z,66.85
2023-05-02T13:08:53.878Z,65.41
2023-05-02T13:11:24.566Z,64.88
2023-05-02T13:13:55.329Z,63.89
2023-05-02T13:16:25.990Z,63.41
2023-05-02T13:18:56.168Z,65.05
2023-05-02T13:21:26.103Z,63.91
2023-05-02T13:23:56.892Z,65.02
2023-05-02T13:26:26.803Z,64.76
2023-05-02T13:28:56.641Z,64.87
2023-05-02T13:31:26.739Z,64.67
2023-05-02T13:33:54.833Z,64.50
2023-05-02T13:36:24.543Z,63.56
2023-05-02T13:38:51.854Z,62.81
2023-05-02T13:41:20.173Z,63.70
2023-05-02T13:43:48.656Z,63.65
2023-05-02T13:46:17.166Z,62.87
2023-05-02T13:48:45.608Z,62.23
2023-05-02T13:51:13.992Z,63.50
2023-05-02T13:53:42.170Z,61.41
2023-05-02T13:56:10.831Z,61.35
2023-05-02T13:58:39.241Z,60.77
2023-05-02T14:01:07.483Z,62.26
2023-05-02T14:03:36.152Z,60.62
2023-05-02T14:06:04.882Z,61.40
2023-05-02T14:08:32.657Z,61.99
2023-05-02T14:11:01.564Z,60.89
2023-05-02T14:13:30.093Z,60.27
2023-05-02T14:15:58.766Z,59.93
2023-05-02T14:18:26.012Z,60.72
2023-05-02T14:20:55.484Z,61.00
2023-05-02T14:23:22.793Z,58.61
2023-05-02T14:25:51.445Z,56.40
2023-05-02T14:28:19.983Z,56.72
2023-05-02T14:30:51.638Z,58.07
2023-05-02T14:33:21.793Z,60.00
2023-05-02T14:35:51.554Z,59.68
2023-05-02T14:38:21.655Z,58.95
2023-05-02T14:40:51.406Z,59.29
2023-05-02T14:43:21.633Z,59.46
2023-05-02T14:45:51.369Z,60.55
2023-05-02T14:48:21.181Z,60.52
2023-05-02T14:50:51.306Z,58.14
2023-05-02T14:53:21.684Z,58.20
2023-05-02T14:55:51.500Z,59.24
2023-05-02T14:58:21.647Z,59.29
2023-05-02T15:00:51.803Z,59.46
2023-05-02T15:03:21.922Z,59.90
2023-05-02T15:05:52.136Z,59.96
2023-05-02T15:08:21.905Z,60.08
2023-05-02T15:10:51.804Z,60.51
2023-05-02T15:13:21.703Z,61.55
2023-05-02T15:15:51.523Z,61.87
2023-05-02T15:18:21.886Z,61.47
2023-05-02T15:20:51.726Z,61.82
2023-05-02T15:23:22.541Z,61.68
2023-05-02T15:25:52.562Z,61.85
2023-05-02T15:28:22.383Z,61.16
2023-05-02T15:30:52.252Z,60.25
2023-05-02T15:33:22.282Z,59.77
2023-05-02T15:35:58.026Z,59.72
2023-05-02T15:38:28.034Z,60.14
2023-05-02T15:41:00.620Z,60.57
2023-05-02T15:43:30.628Z,59.86
2023-05-02T15:46:01.037Z,60.43
2023-05-02T15:48:35.792Z,59.39
2023-05-02T15:51:05.722Z,59.64
2023-05-02T15:53:39.657Z,59.69
2023-05-02T15:56:12.103Z,58.69
2023-05-02T15:58:42.134Z,58.86
2023-05-02T16:01:11.992Z,58.31
2023-05-02T16:03:42.085Z,57.94
2023-05-02T16:06:12.034Z,58.50
2023-05-02T16:08:41.869Z,58.93
2023-05-02T16:11:11.743Z,59.37
2023-05-02T16:13:41.794Z,58.96
2023-05-02T16:16:11.770Z,58.72
2023-05-02T16:18:41.651Z,57.78
2023-05-02T16:21:11.683Z,57.28
2023-05-02T16:23:41.447Z,57.49
2023-05-02T16:26:11.264Z,56.81
2023-05-02T16:28:41.173Z,56.82
2023-05-02T16:31:11.517Z,57.16
2023-05-02T16:33:42.928Z,57.05
2023-05-02T16:36:14.649Z,56.56
2023-05-02T16:38:44.919Z,57.36
2023-05-02T16:41:14.634Z,56.80
2023-05-02T16:43:44.493Z,56.00
2023-05-02T16:46:14.539Z,56.37
2023-05-02T16:48:44.456Z,56.65
2023-05-02T16:51:14.172Z,56.73
2023-05-02T16:53:43.914Z,57.54
2023-05-02T16:56:13.785Z,57.24
2023-05-02T16:58:43.633Z,56.91
2023-05-02T17:01:13.521Z,57.02
2023-05-02T17:03:43.452Z,57.81
2023-05-02T17:06:13.232Z,57.82
2023-05-02T17:08:43.023Z,57.91
2023-05-02T17:11:13.435Z,57.63
2023-05-02T17:13:43.947Z,57.86
2023-05-02T17:16:13.827Z,57.86
2023-05-02T17:18:44.186Z,58.28
2023-05-02T17:21:15.343Z,58.60
2023-05-02T17:23:45.448Z,58.43
2023-05-02T17:26:15.690Z,57.87
2023-05-02T17:28:45.927Z,58.97
2023-05-02T17:31:14.085Z,58.39
2023-05-02T17:33:42.412Z,58.20
2023-05-02T17:36:10.923Z,58.84
2023-05-02T17:38:39.166Z,58.85
2023-05-02T17:41:07.665Z,58.79
2023-05-02T17:43:38.090Z,59.26
2023-05-02T17:46:10.376Z,58.75
2023-05-02T17:48:44.291Z,59.05
2023-05-02T17:51:14.053Z,59.39
2023-05-02T17:53:43.895Z,60.13
2023-05-02T17:56:16.001Z,60.13
2023-05-02T17:58:45.852Z,59.76
2023-05-02T18:01:17.610Z,60.26
2023-05-02T18:03:48.290Z,60.09
2023-05-02T18:06:18.992Z,60.26
2023-05-02T18:08:48.817Z,61.34
2023-05-02T18:11:21.258Z,61.39
2023-05-02T18:13:51.430Z,62.08
2023-05-02T18:16:21.461Z,61.94
2023-05-02T18:18:51.319Z,62.36
2023-05-02T18:21:22.839Z,62.52
2023-05-02T18:23:52.624Z,62.82
2023-05-02T18:26:22.584Z,62.50
2023-05-02T18:28:53.526Z,62.21
2023-05-02T18:31:21.231Z,62.31
2023-05-02T18:33:49.906Z,62.52
2023-05-02T18:36:25.687Z,62.75
2023-05-02T18:38:56.390Z,62.93
2023-05-02T18:41:26.603Z,63.40
2023-05-02T18:43:58.671Z,63.21
2023-05-02T18:46:30.123Z,63.74
2023-05-02T18:49:00.243Z,62.25
2023-05-02T18:51:30.175Z,61.98
2023-05-02T18:54:00.014Z,62.52
2023-05-02T18:56:29.933Z,62.83
2023-05-02T18:58:59.949Z,63.24
2023-05-02T19:01:29.803Z,64.42
2023-05-02T19:04:00.995Z,65.64
2023-05-02T19:06:31.592Z,66.73
2023-05-02T19:09:02.260Z,67.49
2023-05-02T19:11:31.608Z,67.48
2023-05-02T19:14:03.556Z,67.63
2023-05-02T19:16:35.012Z,68.32
2023-05-02T19:19:05.059Z,68.34
2023-05-02T19:21:34.820Z,64.40
2023-05-02T19:24:05.537Z,60.14
2023-05-02T19:26:35.351Z,58.72
2023-05-02T19:29:05.362Z,58.62
2023-05-02T19:31:35.648Z,58.83
2023-05-02T19:34:05.884Z,58.96
2023-05-02T19:36:35.663Z,58.71
2023-05-02T19:39:05.633Z,59.70
2023-05-02T19:41:35.569Z,60.80
2023-05-02T19:44:05.907Z,61.86
2023-05-02T19:46:35.827Z,61.80
2023-05-02T19:49:05.902Z,61.74
2023-05-02T19:51:35.705Z,62.30
2023-05-02T19:54:06.070Z,62.28
2023-05-02T19:56:35.930Z,63.21
2023-05-02T19:59:05.813Z,64.04
2023-05-02T20:01:35.715Z,64.09
2023-05-02T20:04:05.587Z,64.35
2023-05-02T20:06:36.250Z,64.84
2023-05-02T20:09:06.075Z,64.31
2023-05-02T20:11:35.886Z,64.45
2023-05-02T20:14:05.694Z,64.13
2023-05-02T20:16:35.633Z,64.32
2023-05-02T20:19:05.892Z,64.15
2023-05-02T20:21:35.810Z,63.59
2023-05-02T20:24:06.889Z,64.04
2023-05-02T20:26:37.287Z,63.87
2023-05-02T20:29:07.819Z,64.14
2023-05-02T20:31:37.832Z,64.25
2023-05-02T20:34:07.674Z,64.62
2023-05-02T20:36:36.774Z,64.93
2023-05-02T20:39:10.179Z,64.49
2023-05-02T20:41:38.999Z,63.74
2023-05-02T20:44:07.286Z,63.79
2023-05-02T20:46:35.911Z,63.99
2023-05-02T20:49:05.679Z,63.93
2023-05-02T20:51:32.560Z,64.03
2023-05-02T20:54:01.386Z,64.30
2023-05-02T20:56:29.538Z,64.65
2023-05-02T20:58:57.855Z,64.84
2023-05-02T21:01:26.826Z,64.59
2023-05-02T21:03:57.364Z,65.15
2023-05-02T21:06:27.254Z,65.17
2023-05-02T21:08:58.442Z,65.81
2023-05-02T21:11:29.589Z,65.66
2023-05-02T21:13:59.329Z,65.13
2023-05-02T21:16:29.132Z,65.84
2023-05-02T21:18:59.070Z,65.40
2023-05-02T21:21:28.804Z,65.57
2023-05-02T21:23:58.854Z,65.80
2023-05-02T21:26:28.902Z,66.06
2023-05-02T21:28:58.890Z,66.23
2023-05-02T21:31:28.910Z,66.25
2023-05-02T21:33:59.724Z,66.88
2023-05-02T21:36:29.527Z,66.66
2023-05-02T21:38:59.461Z,66.55
2023-05-02T21:41:29.173Z,65.89
2023-05-02T21:43:58.943Z,65.78
2023-05-02T21:46:28.903Z,65.93
2023-05-02T21:48:58.691Z,66.04
2023-05-02T21:51:28.556Z,65.82
2023-05-02T21:53:58.311Z,65.37
2023-05-02T21:56:28.089Z,66.14
2023-05-02T21:58:57.886Z,66.19
2023-05-02T22:01:27.796Z,66.23
2023-05-02T22:03:58.065Z,66.26
2023-05-02T22:06:28.455Z,65.73
2023-05-02T22:08:56.276Z,65.53
2023-05-02T22:11:25.569Z,66.12
2023-05-02T22:13:53.189Z,66.06
2023-05-02T22:16:21.746Z,66.73
2023-05-02T22:18:50.472Z,67.17
2023-05-02T22:21:18.962Z,67.49
2023-05-02T22:23:46.876Z,67.66
2023-05-02T22:26:15.432Z,68.15
2023-05-02T22:28:43.723Z,68.26
2023-05-02T22:31:12.418Z,68.85
2023-05-02T22:33:42.842Z,69.22
2023-05-02T22:36:12.245Z,70.50
2023-05-02T22:38:40.574Z,70.65
2023-05-02T22:41:09.819Z,70.88
2023-05-02T22:43:37.288Z,69.83
2023-05-02T22:46:06.098Z,68.67
2023-05-02T22:48:34.245Z,68.82
2023-05-02T22:51:02.704Z,69.30
2023-05-02T22:53:31.305Z,69.57
2023-05-02T22:56:01.061Z,69.77
2023-05-02T22:58:30.867Z,70.06
2023-05-02T23:01:01.844Z,69.82
2023-05-02T23:03:31.650Z,69.98
2023-05-02T23:06:01.681Z,70.40
2023-05-02T23:08:31.477Z,69.94
2023-05-02T23:11:01.271Z,70.47
2023-05-02T23:13:31.137Z,70.39
2023-05-02T23:16:01.567Z,69.75
2023-05-02T23:18:31.262Z,70.21
2023-05-02T23:21:04.185Z,70.24
2023-05-02T23:23:31.240Z,69.89
2023-05-02T23:26:01.099Z,69.63
2023-05-02T23:28:30.899Z,70.14
2023-05-02T23:31:01.364Z,70.12
2023-05-02T23:33:32.110Z,69.64
2023-05-02T23:36:03.524Z,69.53
2023-05-02T23:38:35.362Z,69.50
2023-05-02T23:41:05.330Z,69.48
2023-05-02T23:43:35.528Z,69.94
2023-05-02T23:46:06.328Z,69.93
2023-05-02T23:48:36.157Z,69.29
2023-05-02T23:51:05.923Z,69.85
2023-05-02T23:53:35.695Z,69.22
2023-05-02T23:56:06.719Z,70.18
2023-05-02T23:58:36.452Z,71.31
